sensor_id;sensor_type;location;lat;lon;timestamp;pressure;altitude;pressure_sealevel;temperature;humidity
28008;BME280;15333;50.010;20.020;2022-10-31T00:00:24;99151.25;;;11.09;100.00
28008;BME280;15333;50.010;20.020;2022-10-31T00:03:45;99153.44;;;10.91;100.00
28008;BME280;15333;50.010;20.020;2022-10-31T00:06:46;99151.09;;;10.74;100.00
28008;BME280;15333;50.010;20.020;2022-10-31T00:09:47;99150.13;;;10.75;100.00
28008;BME280;15333;50.010;20.020;2022-10-31T00:12:48;99156.53;;;10.59;100.00
28008;BME280;15333;50.010;20.020;2022-10-31T00:15:49;99149.25;;;10.74;100.00
28008;BME280;15333;50.010;20.020;2022-10-31T00:18:51;99149.50;;;10.71;100.00
28008;BME280;15333;50.010;20.020;2022-10-31T00:21:53;99151.63;;;10.53;100.00
28008;BME280;15333;50.010;20.020;2022-10-31T00:24:53;99143.50;;;10.55;100.00
28008;BME280;15333;50.010;20.020;2022-10-31T00:27:55;99155.25;;;10.52;100.00
28008;BME280;15333;50.010;20.020;2022-10-31T00:31:00;99151.19;;;10.34;100.00
28008;BME280;15333;50.010;20.020;2022-10-31T00:34:01;99152.91;;;10.23;100.00
28008;BME280;15333;50.010;20.020;2022-10-31T00:37:03;99156.72;;;10.18;100.00
28008;BME280;15333;50.010;20.020;2022-10-31T00:40:04;99159.50;;;10.17;100.00
28008;BME280;15333;50.010;20.020;2022-10-31T00:43:06;99159.91;;;10.11;100.00
28008;BME280;15333;50.010;20.020;2022-10-31T00:46:07;99152.97;;;10.08;100.00
28008;BME280;15333;50.010;20.020;2022-10-31T00:49:07;99154.78;;;10.08;100.00
28008;BME280;15333;50.010;20.020;2022-10-31T00:52:09;99163.81;;;10.19;100.00
28008;BME280;15333;50.010;20.020;2022-10-31T00:55:10;99161.66;;;10.25;100.00
28008;BME280;15333;50.010;20.020;2022-10-31T00:58:11;99161.47;;;10.28;100.00
28008;BME280;15333;50.010;20.020;2022-10-31T01:01:12;99162.56;;;10.11;100.00
28008;BME280;15333;50.010;20.020;2022-10-31T01:04:13;99160.38;;;10.17;100.00
28008;BME280;15333;50.010;20.020;2022-10-31T01:07:14;99165.03;;;10.14;100.00
28008;BME280;15333;50.010;20.020;2022-10-31T01:10:15;99157.97;;;10.13;100.00
28008;BME280;15333;50.010;20.020;2022-10-31T01:13:17;99156.25;;;10.12;100.00
28008;BME280;15333;50.010;20.020;2022-10-31T01:16:22;99152.41;;;10.16;100.00
28008;BME280;15333;50.010;20.020;2022-10-31T01:19:24;99156.06;;;10.15;100.00
28008;BME280;15333;50.010;20.020;2022-10-31T01:22:25;99157.75;;;10.16;100.00
28008;BME280;15333;50.010;20.020;2022-10-31T01:25:26;99154.16;;;10.17;100.00
28008;BME280;15333;50.010;20.020;2022-10-31T01:28:28;99152.41;;;10.16;100.00
28008;BME280;15333;50.010;20.020;2022-10-31T01:31:31;99148.81;;;10.17;100.00
28008;BME280;15333;50.010;20.020;2022-10-31T01:34:33;99146.53;;;10.11;100.00
28008;BME280;15333;50.010;20.020;2022-10-31T01:37:36;99141.59;;;10.05;100.00
28008;BME280;15333;50.010;20.020;2022-10-31T01:40:36;99144.25;;;10.05;100.00
28008;BME280;15333;50.010;20.020;2022-10-31T01:43:52;99141.06;;;10.00;100.00
28008;BME280;15333;50.010;20.020;2022-10-31T01:47:01;99133.81;;;10.14;100.00
28008;BME280;15333;50.010;20.020;2022-10-31T01:50:15;99140.94;;;10.41;100.00
28008;BME280;15333;50.010;20.020;2022-10-31T01:53:21;99136.53;;;10.52;100.00
28008;BME280;15333;50.010;20.020;2022-10-31T01:56:23;99133.84;;;10.52;100.00
28008;BME280;15333;50.010;20.020;2022-10-31T01:59:27;99137.91;;;10.45;100.00
28008;BME280;15333;50.010;20.020;2022-10-31T02:02:30;99138.56;;;10.36;100.00
28008;BME280;15333;50.010;20.020;2022-10-31T02:05:32;99137.91;;;10.20;100.00
28008;BME280;15333;50.010;20.020;2022-10-31T02:08:34;99134.25;;;10.08;100.00
28008;BME280;15333;50.010;20.020;2022-10-31T02:11:37;99137.88;;;10.07;100.00
28008;BME280;15333;50.010;20.020;2022-10-31T02:14:39;99141.34;;;10.22;100.00
28008;BME280;15333;50.010;20.020;2022-10-31T02:17:41;99141.97;;;10.38;100.00
28008;BME280;15333;50.010;20.020;2022-10-31T02:33:52;99146.94;;;10.57;100.00
28008;BME280;15333;50.010;20.020;2022-10-31T02:36:59;99152.59;;;10.52;100.00
28008;BME280;15333;50.010;20.020;2022-10-31T02:40:45;99152.81;;;10.49;100.00
28008;BME280;15333;50.010;20.020;2022-10-31T02:44:15;99157.94;;;10.52;100.00
28008;BME280;15333;50.010;20.020;2022-10-31T02:47:19;99150.13;;;10.49;100.00
28008;BME280;15333;50.010;20.020;2022-10-31T02:50:27;99151.63;;;10.41;100.00
28008;BME280;15333;50.010;20.020;2022-10-31T02:53:36;99156.34;;;10.37;100.00
28008;BME280;15333;50.010;20.020;2022-10-31T02:56:37;99163.38;;;10.38;100.00
28008;BME280;15333;50.010;20.020;2022-10-31T02:59:41;99163.19;;;10.41;100.00
28008;BME280;15333;50.010;20.020;2022-10-31T03:03:14;99164.91;;;10.42;100.00
28008;BME280;15333;50.010;20.020;2022-10-31T03:06:36;99159.88;;;10.50;100.00
28008;BME280;15333;50.010;20.020;2022-10-31T03:16:15;99161.06;;;10.72;100.00
28008;BME280;15333;50.010;20.020;2022-10-31T03:19:33;99160.31;;;10.70;100.00
28008;BME280;15333;50.010;20.020;2022-10-31T03:22:35;99162.53;;;10.76;100.00
28008;BME280;15333;50.010;20.020;2022-10-31T03:25:39;99163.50;;;10.75;100.00
28008;BME280;15333;50.010;20.020;2022-10-31T03:28:59;99164.06;;;10.80;100.00
28008;BME280;15333;50.010;20.020;2022-10-31T03:32:06;99170.03;;;10.83;100.00
28008;BME280;15333;50.010;20.020;2022-10-31T03:35:10;99174.19;;;10.87;100.00
28008;BME280;15333;50.010;20.020;2022-10-31T03:38:13;99166.47;;;10.95;100.00
28008;BME280;15333;50.010;20.020;2022-10-31T03:41:21;99169.81;;;10.99;100.00
28008;BME280;15333;50.010;20.020;2022-10-31T03:44:26;99165.75;;;11.06;100.00
28008;BME280;15333;50.010;20.020;2022-10-31T03:47:35;99173.88;;;11.05;100.00
28008;BME280;15333;50.010;20.020;2022-10-31T03:51:04;99170.84;;;11.09;100.00
28008;BME280;15333;50.010;20.020;2022-10-31T03:57:39;99176.66;;;11.03;100.00
28008;BME280;15333;50.010;20.020;2022-10-31T04:00:44;99174.94;;;11.02;100.00
28008;BME280;15333;50.010;20.020;2022-10-31T04:03:47;99182.97;;;11.02;100.00
28008;BME280;15333;50.010;20.020;2022-10-31T04:06:50;99187.28;;;11.05;100.00
28008;BME280;15333;50.010;20.020;2022-10-31T04:09:52;99181.94;;;10.92;100.00
28008;BME280;15333;50.010;20.020;2022-10-31T04:13:03;99181.41;;;10.87;100.00
28008;BME280;15333;50.010;20.020;2022-10-31T04:16:13;99180.66;;;10.85;100.00
28008;BME280;15333;50.010;20.020;2022-10-31T04:19:15;99172.19;;;10.78;100.00
28008;BME280;15333;50.010;20.020;2022-10-31T04:22:16;99168.53;;;10.67;100.00
28008;BME280;15333;50.010;20.020;2022-10-31T04:25:17;99180.53;;;10.74;100.00
28008;BME280;15333;50.010;20.020;2022-10-31T04:28:18;99182.91;;;10.66;100.00
28008;BME280;15333;50.010;20.020;2022-10-31T04:31:20;99185.13;;;10.59;100.00
28008;BME280;15333;50.010;20.020;2022-10-31T04:34:23;99183.31;;;10.59;100.00
28008;BME280;15333;50.010;20.020;2022-10-31T04:37:24;99182.03;;;10.52;100.00
28008;BME280;15333;50.010;20.020;2022-10-31T04:40:25;99181.81;;;10.55;100.00
28008;BME280;15333;50.010;20.020;2022-10-31T04:43:29;99183.75;;;10.53;100.00
28008;BME280;15333;50.010;20.020;2022-10-31T04:46:30;99183.75;;;10.53;100.00
28008;BME280;15333;50.010;20.020;2022-10-31T04:49:33;99183.75;;;10.53;100.00
28008;BME280;15333;50.010;20.020;2022-10-31T04:52:44;99182.25;;;10.49;100.00
28008;BME280;15333;50.010;20.020;2022-10-31T04:55:47;99194.44;;;10.53;100.00
28008;BME280;15333;50.010;20.020;2022-10-31T04:58:59;99184.16;;;10.47;100.00
28008;BME280;15333;50.010;20.020;2022-10-31T05:02:03;99186.22;;;10.44;100.00
28008;BME280;15333;50.010;20.020;2022-10-31T05:05:21;99186.41;;;10.28;100.00
28008;BME280;15333;50.010;20.020;2022-10-31T05:08:23;99186.25;;;10.17;100.00
28008;BME280;15333;50.010;20.020;2022-10-31T05:11:25;99186.16;;;10.18;100.00
28008;BME280;15333;50.010;20.020;2022-10-31T05:14:30;99192.91;;;10.24;100.00
28008;BME280;15333;50.010;20.020;2022-10-31T05:17:54;99190.44;;;10.21;100.00
28008;BME280;15333;50.010;20.020;2022-10-31T05:21:24;99199.09;;;10.25;100.00
28008;BME280;15333;50.010;20.020;2022-10-31T05:24:32;99195.19;;;10.16;100.00
28008;BME280;15333;50.010;20.020;2022-10-31T05:27:33;99202.50;;;10.14;100.00
28008;BME280;15333;50.010;20.020;2022-10-31T05:30:34;99209.06;;;10.23;100.00
28008;BME280;15333;50.010;20.020;2022-10-31T05:33:35;99210.31;;;10.17;100.00
28008;BME280;15333;50.010;20.020;2022-10-31T05:36:54;99216.44;;;10.19;100.00
28008;BME280;15333;50.010;20.020;2022-10-31T05:39:57;99216.47;;;10.32;100.00
28008;BME280;15333;50.010;20.020;2022-10-31T05:42:58;99208.75;;;10.27;100.00
28008;BME280;15333;50.010;20.020;2022-10-31T05:45:59;99219.13;;;10.32;100.00
28008;BME280;15333;50.010;20.020;2022-10-31T05:49:18;99212.81;;;10.33;100.00
28008;BME280;15333;50.010;20.020;2022-10-31T05:52:39;99224.19;;;10.36;100.00
28008;BME280;15333;50.010;20.020;2022-10-31T05:55:53;99232.75;;;10.41;100.00
28008;BME280;15333;50.010;20.020;2022-10-31T05:58:56;99235.97;;;10.46;100.00
28008;BME280;15333;50.010;20.020;2022-10-31T06:01:57;99232.34;;;10.47;100.00
28008;BME280;15333;50.010;20.020;2022-10-31T06:05:21;99238.56;;;10.60;100.00
28008;BME280;15333;50.010;20.020;2022-10-31T06:08:22;99240.28;;;10.62;100.00
28008;BME280;15333;50.010;20.020;2022-10-31T06:11:24;99241.56;;;10.69;100.00
28008;BME280;15333;50.010;20.020;2022-10-31T06:14:47;99240.72;;;10.81;100.00
28008;BME280;15333;50.010;20.020;2022-10-31T06:18:00;99245.53;;;10.88;100.00
28008;BME280;15333;50.010;20.020;2022-10-31T06:21:04;99249.94;;;11.02;100.00
28008;BME280;15333;50.010;20.020;2022-10-31T06:24:05;99250.81;;;11.15;100.00
28008;BME280;15333;50.010;20.020;2022-10-31T06:27:26;99250.38;;;11.21;100.00
28008;BME280;15333;50.010;20.020;2022-10-31T06:30:28;99247.78;;;11.32;100.00
28008;BME280;15333;50.010;20.020;2022-10-31T06:33:29;99258.28;;;11.35;100.00
28008;BME280;15333;50.010;20.020;2022-10-31T06:36:34;99265.66;;;11.45;100.00
28008;BME280;15333;50.010;20.020;2022-10-31T06:39:37;99263.81;;;11.58;100.00
28008;BME280;15333;50.010;20.020;2022-10-31T06:42:39;99262.84;;;11.59;100.00
28008;BME280;15333;50.010;20.020;2022-10-31T06:45:40;99267.03;;;11.63;100.00
28008;BME280;15333;50.010;20.020;2022-10-31T06:48:56;99260.78;;;11.75;100.00
28008;BME280;15333;50.010;20.020;2022-10-31T06:52:10;99271.31;;;11.78;100.00
28008;BME280;15333;50.010;20.020;2022-10-31T06:55:11;99267.94;;;11.87;99.06
28008;BME280;15333;50.010;20.020;2022-10-31T06:58:12;99271.88;;;11.94;98.19
28008;BME280;15333;50.010;20.020;2022-10-31T07:01:14;99271.16;;;11.92;98.43
28008;BME280;15333;50.010;20.020;2022-10-31T07:04:15;99278.50;;;12.01;96.98
28008;BME280;15333;50.010;20.020;2022-10-31T07:07:16;99277.22;;;12.07;96.14
28008;BME280;15333;50.010;20.020;2022-10-31T07:10:19;99284.72;;;12.14;96.66
28008;BME280;15333;50.010;20.020;2022-10-31T07:13:27;99277.63;;;12.13;96.49
28008;BME280;15333;50.010;20.020;2022-10-31T07:16:37;99282.28;;;12.23;95.74
28008;BME280;15333;50.010;20.020;2022-10-31T07:19:40;99283.28;;;12.22;95.46
28008;BME280;15333;50.010;20.020;2022-10-31T07:22:42;99284.00;;;12.24;95.96
28008;BME280;15333;50.010;20.020;2022-10-31T07:25:43;99292.75;;;12.14;96.01
28008;BME280;15333;50.010;20.020;2022-10-31T07:28:55;99286.97;;;12.32;95.49
28008;BME280;15333;50.010;20.020;2022-10-31T07:31:59;99286.97;;;12.32;94.77
28008;BME280;15333;50.010;20.020;2022-10-31T07:35:02;99284.28;;;12.32;95.43
28008;BME280;15333;50.010;20.020;2022-10-31T07:38:14;99291.19;;;12.47;94.39
28008;BME280;15333;50.010;20.020;2022-10-31T07:41:15;99285.19;;;12.43;93.54
28008;BME280;15333;50.010;20.020;2022-10-31T07:44:18;99286.69;;;12.47;93.18
28008;BME280;15333;50.010;20.020;2022-10-31T07:47:52;99291.66;;;12.41;93.68
28008;BME280;15333;50.010;20.020;2022-10-31T07:51:12;99292.16;;;12.46;93.12
28008;BME280;15333;50.010;20.020;2022-10-31T07:54:31;99290.91;;;12.63;92.58
28008;BME280;15333;50.010;20.020;2022-10-31T07:57:32;99295.16;;;12.65;92.42
28008;BME280;15333;50.010;20.020;2022-10-31T08:00:36;99293.97;;;12.69;91.81
28008;BME280;15333;50.010;20.020;2022-10-31T08:03:37;99290.53;;;12.67;92.01
28008;BME280;15333;50.010;20.020;2022-10-31T08:06:44;99284.41;;;12.65;90.71
28008;BME280;15333;50.010;20.020;2022-10-31T08:09:54;99292.41;;;12.78;90.50
28008;BME280;15333;50.010;20.020;2022-10-31T08:13:04;99291.34;;;12.91;90.79
28008;BME280;15333;50.010;20.020;2022-10-31T08:16:07;99301.84;;;12.94;89.57
28008;BME280;15333;50.010;20.020;2022-10-31T08:19:11;99302.88;;;13.05;89.07
28008;BME280;15333;50.010;20.020;2022-10-31T08:22:14;99298.19;;;12.95;88.71
28008;BME280;15333;50.010;20.020;2022-10-31T08:25:15;99305.59;;;13.16;88.33
28008;BME280;15333;50.010;20.020;2022-10-31T08:28:17;99297.31;;;13.30;87.85
28008;BME280;15333;50.010;20.020;2022-10-31T08:31:21;99296.38;;;13.42;87.25
28008;BME280;15333;50.010;20.020;2022-10-31T08:34:22;99296.84;;;13.58;85.74
28008;BME280;15333;50.010;20.020;2022-10-31T08:37:42;99299.28;;;13.50;86.87
28008;BME280;15333;50.010;20.020;2022-10-31T08:40:48;99294.16;;;13.69;85.82
28008;BME280;15333;50.010;20.020;2022-10-31T08:43:49;99290.22;;;13.96;84.75
28008;BME280;15333;50.010;20.020;2022-10-31T08:46:50;99292.38;;;14.13;82.89
28008;BME280;15333;50.010;20.020;2022-10-31T08:49:51;99289.41;;;14.27;82.35
28008;BME280;15333;50.010;20.020;2022-10-31T08:52:52;99288.41;;;14.39;81.47
28008;BME280;15333;50.010;20.020;2022-10-31T08:55:55;99281.41;;;14.48;79.81
28008;BME280;15333;50.010;20.020;2022-10-31T08:58:59;99276.88;;;14.37;80.98
28008;BME280;15333;50.010;20.020;2022-10-31T09:02:19;99288.84;;;14.56;79.48
28008;BME280;15333;50.010;20.020;2022-10-31T09:05:20;99281.50;;;14.78;78.84
28008;BME280;15333;50.010;20.020;2022-10-31T09:08:22;99282.84;;;14.84;78.42
28008;BME280;15333;50.010;20.020;2022-10-31T09:11:25;99288.34;;;15.03;76.81
28008;BME280;15333;50.010;20.020;2022-10-31T09:14:44;99287.03;;;15.18;76.33
28008;BME280;15333;50.010;20.020;2022-10-31T09:18:11;99284.56;;;15.36;74.75
28008;BME280;15333;50.010;20.020;2022-10-31T09:21:18;99287.63;;;15.52;73.35
28008;BME280;15333;50.010;20.020;2022-10-31T09:24:21;99280.50;;;15.62;72.43
28008;BME280;15333;50.010;20.020;2022-10-31T09:27:21;99280.81;;;15.69;71.91
28008;BME280;15333;50.010;20.020;2022-10-31T09:30:29;99282.56;;;15.89;70.95
28008;BME280;15333;50.010;20.020;2022-10-31T09:33:31;99284.41;;;15.89;71.76
28008;BME280;15333;50.010;20.020;2022-10-31T09:36:52;99283.34;;;16.11;71.25
28008;BME280;15333;50.010;20.020;2022-10-31T09:39:55;99297.59;;;16.32;70.29
28008;BME280;15333;50.010;20.020;2022-10-31T09:53:56;99288.41;;;16.82;68.35
28008;BME280;15333;50.010;20.020;2022-10-31T09:57:01;99289.53;;;16.90;67.75
28008;BME280;15333;50.010;20.020;2022-10-31T10:00:06;99292.09;;;17.01;67.48
28008;BME280;15333;50.010;20.020;2022-10-31T10:03:33;99298.94;;;17.05;67.89
28008;BME280;15333;50.010;20.020;2022-10-31T10:06:49;99299.75;;;17.25;66.62
28008;BME280;15333;50.010;20.020;2022-10-31T10:10:46;99292.88;;;17.30;66.98
28008;BME280;15333;50.010;20.020;2022-10-31T10:14:26;99289.72;;;17.44;65.23
28008;BME280;15333;50.010;20.020;2022-10-31T10:17:43;99291.53;;;17.53;65.68
28008;BME280;15333;50.010;20.020;2022-10-31T10:31:20;99287.81;;;18.01;62.48
28008;BME280;15333;50.010;20.020;2022-10-31T10:34:24;99283.38;;;18.00;63.48
28008;BME280;15333;50.010;20.020;2022-10-31T10:37:38;99278.66;;;18.02;63.60
28008;BME280;15333;50.010;20.020;2022-10-31T10:40:41;99283.78;;;18.05;62.73
28008;BME280;15333;50.010;20.020;2022-10-31T10:43:42;99282.38;;;18.01;63.03
28008;BME280;15333;50.010;20.020;2022-10-31T10:46:51;99284.59;;;18.15;63.23
28008;BME280;15333;50.010;20.020;2022-10-31T10:50:20;99280.81;;;18.26;62.28
28008;BME280;15333;50.010;20.020;2022-10-31T10:53:37;99274.22;;;18.28;63.23
28008;BME280;15333;50.010;20.020;2022-10-31T11:00:17;99280.44;;;18.38;61.46
28008;BME280;15333;50.010;20.020;2022-10-31T11:03:18;99276.72;;;18.39;62.12
28008;BME280;15333;50.010;20.020;2022-10-31T11:06:22;99277.50;;;18.50;61.91
28008;BME280;15333;50.010;20.020;2022-10-31T11:09:26;99277.69;;;18.66;61.07
28008;BME280;15333;50.010;20.020;2022-10-31T11:12:32;99264.44;;;18.63;60.96
28008;BME280;15333;50.010;20.020;2022-10-31T11:15:49;99271.47;;;18.56;60.83
28008;BME280;15333;50.010;20.020;2022-10-31T11:18:50;99266.31;;;18.80;60.55
28008;BME280;15333;50.010;20.020;2022-10-31T11:21:51;99265.44;;;18.80;60.38
28008;BME280;15333;50.010;20.020;2022-10-31T11:24:52;99268.38;;;18.86;59.77
28008;BME280;15333;50.010;20.020;2022-10-31T11:31:11;99255.63;;;19.04;59.26
28008;BME280;15333;50.010;20.020;2022-10-31T11:34:33;99255.53;;;19.14;59.44
28008;BME280;15333;50.010;20.020;2022-10-31T11:37:41;99255.53;;;19.14;59.34
28008;BME280;15333;50.010;20.020;2022-10-31T11:40:57;99253.59;;;19.24;59.32
28008;BME280;15333;50.010;20.020;2022-10-31T11:44:04;99251.38;;;19.28;59.28
28008;BME280;15333;50.010;20.020;2022-10-31T11:47:13;99250.59;;;19.35;59.74
28008;BME280;15333;50.010;20.020;2022-10-31T11:50:39;99246.38;;;19.41;58.59
28008;BME280;15333;50.010;20.020;2022-10-31T11:53:50;99243.50;;;19.42;58.97
28008;BME280;15333;50.010;20.020;2022-10-31T11:56:51;99247.38;;;19.40;58.80
28008;BME280;15333;50.010;20.020;2022-10-31T11:59:54;99240.63;;;19.44;59.53
28008;BME280;15333;50.010;20.020;2022-10-31T12:03:26;99241.38;;;19.54;59.07
28008;BME280;15333;50.010;20.020;2022-10-31T12:06:38;99239.09;;;19.67;58.53
28008;BME280;15333;50.010;20.020;2022-10-31T12:09:40;99240.13;;;19.66;58.75
28008;BME280;15333;50.010;20.020;2022-10-31T12:25:59;99228.97;;;19.85;58.41
28008;BME280;15333;50.010;20.020;2022-10-31T12:45:54;99217.38;;;19.75;59.14
28008;BME280;15333;50.010;20.020;2022-10-31T12:58:55;99207.75;;;19.81;59.26
28008;BME280;15333;50.010;20.020;2022-10-31T13:05:33;99208.09;;;19.86;58.94
28008;BME280;15333;50.010;20.020;2022-10-31T13:08:55;99208.25;;;19.84;59.40
28008;BME280;15333;50.010;20.020;2022-10-31T13:12:24;99214.69;;;19.83;59.54
28008;BME280;15333;50.010;20.020;2022-10-31T13:15:27;99215.75;;;19.90;59.47
28008;BME280;15333;50.010;20.020;2022-10-31T13:19:03;99209.28;;;19.83;58.89
28008;BME280;15333;50.010;20.020;2022-10-31T13:22:13;99205.59;;;20.01;59.41
28008;BME280;15333;50.010;20.020;2022-10-31T13:25:19;99212.56;;;19.95;59.55
28008;BME280;15333;50.010;20.020;2022-10-31T13:31:42;99211.13;;;19.75;59.51
28008;BME280;15333;50.010;20.020;2022-10-31T13:34:47;99209.94;;;19.77;59.39
28008;BME280;15333;50.010;20.020;2022-10-31T13:41:53;99206.22;;;19.78;59.56
28008;BME280;15333;50.010;20.020;2022-10-31T13:45:11;99203.53;;;19.86;59.91
28008;BME280;15333;50.010;20.020;2022-10-31T13:51:33;99206.16;;;19.70;59.19
28008;BME280;15333;50.010;20.020;2022-10-31T13:54:44;99207.69;;;19.65;59.41
28008;BME280;15333;50.010;20.020;2022-10-31T13:57:45;99211.72;;;19.52;60.16
28008;BME280;15333;50.010;20.020;2022-10-31T14:00:58;99201.50;;;19.46;60.36
28008;BME280;15333;50.010;20.020;2022-10-31T14:04:13;99207.38;;;19.42;60.34
28008;BME280;15333;50.010;20.020;2022-10-31T14:07:22;99201.22;;;19.32;61.33
28008;BME280;15333;50.010;20.020;2022-10-31T14:10:28;99201.47;;;19.21;61.69
28008;BME280;15333;50.010;20.020;2022-10-31T14:13:35;99203.81;;;19.15;61.93
28008;BME280;15333;50.010;20.020;2022-10-31T14:16:43;99197.00;;;19.11;62.29
28008;BME280;15333;50.010;20.020;2022-10-31T14:26:33;99188.91;;;18.68;63.64
28008;BME280;15333;50.010;20.020;2022-10-31T14:29:35;99191.56;;;18.60;63.85
28008;BME280;15333;50.010;20.020;2022-10-31T14:32:36;99189.03;;;18.49;63.85
28008;BME280;15333;50.010;20.020;2022-10-31T14:35:51;99186.25;;;18.40;64.52
28008;BME280;15333;50.010;20.020;2022-10-31T14:39:00;99194.34;;;18.32;65.14
28008;BME280;15333;50.010;20.020;2022-10-31T14:45:37;99190.81;;;18.05;65.79
28008;BME280;15333;50.010;20.020;2022-10-31T14:52:07;99186.50;;;17.94;66.45
28008;BME280;15333;50.010;20.020;2022-10-31T14:55:12;99187.81;;;17.90;67.33
28008;BME280;15333;50.010;20.020;2022-10-31T14:58:19;99196.75;;;17.73;68.11
28008;BME280;15333;50.010;20.020;2022-10-31T15:01:28;99188.84;;;17.52;68.89
28008;BME280;15333;50.010;20.020;2022-10-31T15:04:30;99187.47;;;17.38;70.61
28008;BME280;15333;50.010;20.020;2022-10-31T15:07:33;99189.56;;;17.17;71.27
28008;BME280;15333;50.010;20.020;2022-10-31T15:10:37;99190.91;;;16.94;71.21
28008;BME280;15333;50.010;20.020;2022-10-31T15:13:57;99192.22;;;16.70;71.80
28008;BME280;15333;50.010;20.020;2022-10-31T15:17:02;99193.09;;;16.52;72.36
28008;BME280;15333;50.010;20.020;2022-10-31T15:20:04;99188.69;;;16.41;72.57
28008;BME280;15333;50.010;20.020;2022-10-31T15:23:05;99191.25;;;16.33;73.10
28008;BME280;15333;50.010;20.020;2022-10-31T15:26:06;99187.09;;;16.29;73.43
28008;BME280;15333;50.010;20.020;2022-10-31T15:29:15;99184.84;;;16.34;73.50
28008;BME280;15333;50.010;20.020;2022-10-31T15:32:28;99190.97;;;16.17;74.09
28008;BME280;15333;50.010;20.020;2022-10-31T15:35:30;99193.63;;;16.07;74.63
28008;BME280;15333;50.010;20.020;2022-10-31T15:38:31;99194.03;;;15.93;75.12
28008;BME280;15333;50.010;20.020;2022-10-31T15:41:51;99190.19;;;15.86;75.99
28008;BME280;15333;50.010;20.020;2022-10-31T15:45:16;99202.94;;;15.64;77.27
28008;BME280;15333;50.010;20.020;2022-10-31T15:48:26;99199.25;;;15.56;78.35
28008;BME280;15333;50.010;20.020;2022-10-31T15:51:32;99206.09;;;15.70;76.43
28008;BME280;15333;50.010;20.020;2022-10-31T15:54:34;99202.94;;;15.64;77.10
28008;BME280;15333;50.010;20.020;2022-10-31T15:57:51;99209.34;;;15.33;78.11
28008;BME280;15333;50.010;20.020;2022-10-31T16:01:04;99207.03;;;15.28;77.84
28008;BME280;15333;50.010;20.020;2022-10-31T16:07:15;99208.91;;;15.07;79.25
28008;BME280;15333;50.010;20.020;2022-10-31T16:10:22;99201.91;;;14.95;79.95
28008;BME280;15333;50.010;20.020;2022-10-31T16:13:27;99209.06;;;14.85;80.63
28008;BME280;15333;50.010;20.020;2022-10-31T16:16:30;99215.78;;;14.91;80.57
28008;BME280;15333;50.010;20.020;2022-10-31T16:19:35;99215.28;;;14.76;81.41
28008;BME280;15333;50.010;20.020;2022-10-31T16:22:38;99212.63;;;14.65;82.20
28008;BME280;15333;50.010;20.020;2022-10-31T16:25:39;99215.44;;;14.42;82.50
28008;BME280;15333;50.010;20.020;2022-10-31T16:28:51;99216.84;;;14.26;83.64
28008;BME280;15333;50.010;20.020;2022-10-31T16:31:53;99220.59;;;14.34;83.78
28008;BME280;15333;50.010;20.020;2022-10-31T16:35:21;99225.03;;;14.24;84.00
28008;BME280;15333;50.010;20.020;2022-10-31T16:38:18;99219.13;;;14.30;83.24
28008;BME280;15333;50.010;20.020;2022-10-31T16:41:20;99225.78;;;14.15;83.91
28008;BME280;15333;50.010;20.020;2022-10-31T16:44:24;99224.59;;;14.08;84.34
28008;BME280;15333;50.010;20.020;2022-10-31T16:47:25;99219.66;;;13.92;85.71
28008;BME280;15333;50.010;20.020;2022-10-31T16:50:26;99221.53;;;13.69;86.64
28008;BME280;15333;50.010;20.020;2022-10-31T16:53:28;99216.91;;;13.49;87.20
28008;BME280;15333;50.010;20.020;2022-10-31T16:56:32;99227.56;;;13.28;88.80
28008;BME280;15333;50.010;20.020;2022-10-31T16:59:34;99226.94;;;13.14;90.32
28008;BME280;15333;50.010;20.020;2022-10-31T17:02:36;99229.34;;;13.06;91.51
28008;BME280;15333;50.010;20.020;2022-10-31T17:05:38;99230.28;;;12.93;92.47
28008;BME280;15333;50.010;20.020;2022-10-31T17:08:39;99237.25;;;12.85;92.76
28008;BME280;15333;50.010;20.020;2022-10-31T17:11:45;99232.09;;;12.82;93.45
28008;BME280;15333;50.010;20.020;2022-10-31T17:14:49;99228.34;;;12.84;92.90
28008;BME280;15333;50.010;20.020;2022-10-31T17:17:52;99231.25;;;12.81;92.54
28008;BME280;15333;50.010;20.020;2022-10-31T17:20:57;99227.69;;;12.70;92.69
28008;BME280;15333;50.010;20.020;2022-10-31T17:23:59;99225.22;;;12.67;93.60
28008;BME280;15333;50.010;20.020;2022-10-31T17:27:00;99222.16;;;12.60;94.67
28008;BME280;15333;50.010;20.020;2022-10-31T17:30:01;99221.94;;;12.63;96.00
28008;BME280;15333;50.010;20.020;2022-10-31T17:33:02;99225.31;;;12.54;96.16
28008;BME280;15333;50.010;20.020;2022-10-31T17:36:03;99220.16;;;12.40;96.33
28008;BME280;15333;50.010;20.020;2022-10-31T17:39:04;99229.25;;;12.26;96.60
28008;BME280;15333;50.010;20.020;2022-10-31T17:42:07;99232.13;;;12.12;96.65
28008;BME280;15333;50.010;20.020;2022-10-31T17:45:08;99228.41;;;12.02;97.71
28008;BME280;15333;50.010;20.020;2022-10-31T17:48:12;99227.50;;;11.90;98.94
28008;BME280;15333;50.010;20.020;2022-10-31T17:51:13;99224.75;;;11.79;100.00
28008;BME280;15333;50.010;20.020;2022-10-31T17:54:14;99229.78;;;11.71;100.00
28008;BME280;15333;50.010;20.020;2022-10-31T17:57:18;99229.25;;;11.66;100.00
28008;BME280;15333;50.010;20.020;2022-10-31T18:00:19;99230.38;;;11.87;100.00
28008;BME280;15333;50.010;20.020;2022-10-31T18:03:22;99226.03;;;11.86;100.00
28008;BME280;15333;50.010;20.020;2022-10-31T18:06:23;99229.25;;;11.66;100.00
28008;BME280;15333;50.010;20.020;2022-10-31T18:09:24;99228.22;;;11.56;100.00
28008;BME280;15333;50.010;20.020;2022-10-31T18:12:26;99227.38;;;11.55;100.00